createdAt,value
2017-07-07T00:01:28.939Z,19.60
2017-07-07T00:03:58.161Z,19.50
2017-07-07T00:06:26.856Z,19.50
2017-07-07T00:08:55.561Z,19.40
2017-07-07T00:11:23.984Z,19.50
2017-07-07T00:13:52.432Z,19.40
2017-07-07T00:16:20.868Z,19.50
2017-07-07T00:18:50.051Z,19.70
2017-07-07T00:21:19.261Z,19.80
2017-07-07T00:23:48.463Z,19.90
2017-07-07T00:26:17.663Z,20.00
2017-07-07T00:28:46.967Z,20.10
2017-07-07T00:31:16.148Z,20.10
2017-07-07T00:33:44.674Z,20.10
2017-07-07T00:36:13.114Z,20.10
2017-07-07T00:38:42.328Z,20.10
2017-07-07T00:41:11.535Z,20.10
2017-07-07T00:43:40.020Z,20.10
2017-07-07T00:46:09.276Z,20.40
2017-07-07T00:48:37.696Z,20.90
2017-07-07T00:51:06.959Z,21.50
2017-07-07T00:53:35.436Z,21.40
2017-07-07T00:56:03.860Z,21.70
2017-07-07T00:58:32.317Z,21.60
2017-07-07T01:01:00.967Z,21.20
2017-07-07T01:03:29.455Z,21.20
2017-07-07T01:05:57.875Z,21.10
2017-07-07T01:08:27.075Z,21.00
2017-07-07T01:10:56.300Z,20.90
2017-07-07T01:13:24.995Z,20.70
2017-07-07T01:15:53.436Z,20.70
2017-07-07T01:18:22.043Z,20.70
2017-07-07T01:20:50.500Z,20.60
2017-07-07T01:23:18.922Z,20.60
2017-07-07T01:25:47.349Z,20.60
2017-07-07T01:28:15.805Z,20.40
2017-07-07T01:30:44.228Z,20.30
2017-07-07T01:33:12.721Z,20.30
2017-07-07T01:35:41.908Z,20.20
2017-07-07T01:38:11.035Z,20.10
2017-07-07T01:40:39.119Z,20.20
2017-07-07T01:43:07.562Z,20.10
2017-07-07T01:45:35.988Z,20.10
2017-07-07T01:48:04.563Z,20.10
2017-07-07T01:50:32.724Z,20.10
2017-07-07T01:53:01.626Z,20.10
2017-07-07T01:55:29.349Z,20.10
2017-07-07T01:57:57.782Z,20.20
2017-07-07T02:00:26.276Z,20.20
2017-07-07T02:02:54.687Z,20.10
2017-07-07T02:05:23.123Z,20.00
2017-07-07T02:07:51.543Z,19.90
2017-07-07T02:10:19.980Z,19.90
2017-07-07T02:12:48.412Z,19.90
2017-07-07T02:15:16.906Z,19.90
2017-07-07T02:17:45.326Z,19.80
2017-07-07T02:20:13.768Z,19.80
2017-07-07T02:22:42.203Z,19.70
2017-07-07T02:25:10.646Z,19.80
2017-07-07T02:27:39.856Z,19.70
2017-07-07T02:30:09.043Z,19.70
2017-07-07T02:32:38.242Z,19.80
2017-07-07T02:35:07.458Z,19.70
2017-07-07T02:37:35.982Z,19.70
2017-07-07T02:40:05.444Z,19.70
2017-07-07T02:42:33.864Z,19.60
2017-07-07T02:45:02.606Z,19.70
2017-07-07T02:47:31.804Z,19.60
2017-07-07T02:50:01.038Z,19.70
2017-07-07T02:52:29.491Z,19.60
2017-07-07T02:54:58.683Z,19.80
2017-07-07T02:57:27.949Z,19.70
2017-07-07T02:59:57.401Z,19.60
2017-07-07T03:02:25.859Z,19.60
2017-07-07T03:04:54.373Z,19.60
2017-07-07T03:07:22.836Z,19.50
2017-07-07T03:09:52.028Z,19.50
2017-07-07T03:12:21.227Z,19.50
2017-07-07T03:14:50.433Z,19.40
2017-07-07T03:17:19.607Z,19.30
2017-07-07T03:19:48.055Z,19.30
2017-07-07T03:22:16.483Z,19.30
2017-07-07T03:24:44.899Z,19.20
2017-07-07T03:27:13.477Z,19.10
2017-07-07T03:29:42.167Z,19.00
2017-07-07T03:32:10.599Z,18.90
2017-07-07T03:34:39.135Z,19.10
2017-07-07T03:37:07.596Z,19.20
2017-07-07T03:39:37.014Z,19.20
2017-07-07T03:42:05.541Z,19.20
2017-07-07T03:44:33.979Z,19.20
2017-07-07T03:47:02.403Z,19.20
2017-07-07T03:49:30.838Z,19.10
2017-07-07T03:51:59.263Z,19.10
2017-07-07T03:54:27.799Z,19.10
2017-07-07T03:56:56.236Z,19.00
2017-07-07T03:59:24.916Z,19.10
2017-07-07T04:01:53.352Z,19.10
2017-07-07T04:04:21.779Z,19.10
2017-07-07T04:06:50.219Z,19.10
2017-07-07T04:09:18.811Z,19.10
2017-07-07T04:11:47.235Z,19.00
2017-07-07T04:14:15.668Z,19.10
2017-07-07T04:16:44.100Z,19.00
2017-07-07T04:19:12.576Z,19.00
2017-07-07T04:21:40.999Z,18.90
2017-07-07T04:24:10.212Z,18.80
2017-07-07T04:26:38.641Z,18.70
2017-07-07T04:29:07.068Z,18.90
2017-07-07T04:31:35.498Z,18.90
2017-07-07T04:34:03.929Z,19.00
2017-07-07T04:36:33.159Z,19.20
2017-07-07T04:39:02.419Z,19.20
2017-07-07T04:41:31.619Z,19.30
2017-07-07T04:44:00.824Z,19.40
2017-07-07T04:46:30.016Z,19.30
2017-07-07T04:48:59.247Z,19.30
2017-07-07T04:51:27.672Z,19.20
2017-07-07T04:53:56.359Z,19.40
2017-07-07T04:56:24.815Z,19.50
2017-07-07T04:58:53.574Z,19.40
2017-07-07T05:01:22.019Z,19.40
2017-07-07T05:03:50.566Z,19.50
2017-07-07T05:06:19.141Z,19.50
2017-07-07T05:08:47.697Z,19.40
2017-07-07T05:11:16.898Z,19.40
2017-07-07T05:13:46.121Z,19.40
2017-07-07T05:16:14.780Z,19.40
2017-07-07T05:18:43.983Z,19.70
2017-07-07T05:21:12.468Z,19.60
2017-07-07T05:23:40.895Z,19.90
2017-07-07T05:26:09.355Z,19.90
2017-07-07T05:28:37.785Z,20.10
2017-07-07T05:31:06.237Z,20.20
2017-07-07T05:33:35.703Z,20.50
2017-07-07T05:36:04.144Z,20.40
2017-07-07T05:38:32.691Z,20.60
2017-07-07T05:41:01.141Z,20.70
2017-07-07T05:43:29.592Z,20.80
2017-07-07T05:45:58.019Z,21.00
2017-07-07T05:48:26.435Z,21.00
2017-07-07T05:50:54.884Z,21.00
2017-07-07T05:53:23.350Z,21.20
2017-07-07T05:55:52.534Z,21.40
2017-07-07T05:58:21.754Z,21.50
2017-07-07T06:00:50.226Z,21.50
2017-07-07T06:03:19.428Z,21.70
2017-07-07T06:05:47.852Z,21.60
2017-07-07T06:08:16.275Z,21.70
2017-07-07T06:10:44.732Z,21.70
2017-07-07T06:13:13.208Z,21.80
2017-07-07T06:15:40.448Z,22.00
2017-07-07T06:18:07.691Z,21.80
2017-07-07T06:20:35.052Z,21.80
2017-07-07T06:23:03.503Z,21.70
2017-07-07T06:25:34.309Z,21.60
2017-07-07T06:28:02.825Z,21.50
2017-07-07T06:30:31.272Z,21.50
2017-07-07T06:32:59.715Z,21.50
2017-07-07T06:35:28.134Z,21.60
2017-07-07T06:37:56.558Z,21.70
2017-07-07T06:40:25.020Z,21.90
2017-07-07T06:42:53.460Z,21.90
2017-07-07T06:45:21.893Z,22.00
2017-07-07T06:47:50.334Z,22.10
2017-07-07T06:50:18.852Z,22.10
2017-07-07T06:52:47.270Z,22.00
2017-07-07T06:55:15.717Z,22.00
2017-07-07T06:57:44.412Z,22.20
2017-07-07T07:00:12.844Z,22.40
2017-07-07T07:02:41.295Z,22.70
2017-07-07T07:05:09.726Z,23.10
2017-07-07T07:07:38.168Z,23.40
2017-07-07T07:10:06.600Z,23.60
2017-07-07T07:12:35.792Z,24.10
2017-07-07T07:15:04.525Z,24.00
2017-07-07T07:17:32.963Z,24.20
2017-07-07T07:20:02.164Z,24.40
2017-07-07T07:22:30.995Z,24.40
2017-07-07T07:24:59.416Z,24.30
2017-07-07T07:27:27.860Z,24.40
2017-07-07T07:29:56.287Z,24.50
2017-07-07T07:32:24.723Z,24.50
2017-07-07T07:34:54.185Z,24.10
2017-07-07T07:37:22.783Z,24.00
2017-07-07T07:39:51.979Z,23.80
2017-07-07T07:42:21.087Z,23.70
2017-07-07T07:44:49.539Z,23.50
2017-07-07T07:47:17.942Z,23.30
2017-07-07T07:49:46.383Z,23.20
2017-07-07T07:52:14.915Z,23.10
2017-07-07T07:54:43.587Z,23.10
2017-07-07T07:57:12.003Z,23.10
2017-07-07T07:59:40.447Z,23.20
2017-07-07T08:02:08.679Z,23.20
2017-07-07T08:04:37.201Z,23.40
2017-07-07T08:07:05.820Z,23.80
2017-07-07T08:09:34.279Z,24.20
2017-07-07T08:12:02.716Z,24.40
2017-07-07T08:14:31.144Z,24.50
2017-07-07T08:17:00.339Z,24.70
2017-07-07T08:19:28.759Z,24.70
2017-07-07T08:21:57.208Z,24.60
2017-07-07T08:24:26.425Z,24.50
2017-07-07T08:26:54.867Z,24.50
2017-07-07T08:29:23.375Z,24.40
2017-07-07T08:31:51.820Z,24.30
2017-07-07T08:34:20.264Z,24.40
2017-07-07T08:36:48.696Z,24.60
2017-07-07T08:39:18.068Z,25.20
2017-07-07T08:41:47.290Z,25.60
2017-07-07T08:44:15.785Z,25.60
2017-07-07T08:46:44.276Z,25.60
2017-07-07T08:49:13.480Z,25.50
2017-07-07T08:51:42.672Z,25.50
2017-07-07T08:54:11.117Z,25.50
2017-07-07T08:56:39.546Z,25.60
2017-07-07T08:59:08.244Z,25.40
2017-07-07T09:01:36.663Z,25.40
2017-07-07T09:04:05.092Z,25.60
2017-07-07T09:06:34.295Z,26.30
2017-07-07T09:09:02.813Z,26.30
2017-07-07T09:11:31.242Z,26.50
2017-07-07T09:13:59.695Z,26.40
2017-07-07T09:16:28.240Z,26.20
2017-07-07T09:18:56.707Z,26.20
2017-07-07T09:21:25.911Z,26.50
2017-07-07T09:23:54.348Z,26.40
2017-07-07T09:26:22.788Z,26.70
2017-07-07T09:28:51.231Z,26.90
2017-07-07T09:31:19.495Z,26.80
2017-07-07T09:33:48.026Z,26.40
2017-07-07T09:36:16.459Z,26.60
2017-07-07T09:38:44.924Z,26.70
2017-07-07T09:41:13.455Z,26.90
2017-07-07T09:43:42.136Z,26.90
2017-07-07T09:46:10.836Z,27.10
2017-07-07T09:48:39.295Z,27.20
2017-07-07T09:51:07.730Z,27.30
2017-07-07T09:53:37.199Z,27.40
2017-07-07T09:56:05.644Z,27.30
2017-07-07T09:58:34.097Z,27.50
2017-07-07T10:01:02.539Z,27.60
2017-07-07T10:03:31.728Z,27.50
2017-07-07T10:06:00.934Z,27.60
2017-07-07T10:08:30.139Z,27.80
2017-07-07T10:10:59.319Z,28.00
2017-07-07T10:13:28.532Z,28.10
2017-07-07T10:15:57.720Z,28.30
2017-07-07T10:18:26.223Z,28.20
2017-07-07T10:20:54.646Z,28.50
2017-07-07T10:23:23.102Z,28.40
2017-07-07T10:25:51.563Z,28.60
2017-07-07T10:28:20.744Z,28.90
2017-07-07T10:30:49.256Z,28.90
2017-07-07T10:33:17.728Z,29.00
2017-07-07T10:35:46.908Z,28.60
2017-07-07T10:38:16.130Z,28.70
2017-07-07T10:40:45.357Z,28.80
2017-07-07T10:43:13.804Z,28.70
2017-07-07T10:45:43.024Z,29.00
2017-07-07T10:48:11.507Z,29.00
2017-07-07T10:50:40.239Z,29.10
2017-07-07T10:53:08.652Z,29.20
2017-07-07T10:55:37.365Z,29.30
2017-07-07T10:58:06.056Z,29.40
2017-07-07T11:00:34.505Z,29.70
2017-07-07T11:03:02.951Z,30.00
2017-07-07T11:05:31.389Z,30.10
2017-07-07T11:07:59.858Z,30.10
2017-07-07T11:10:29.061Z,29.70
2017-07-07T11:12:58.256Z,29.50
2017-07-07T11:15:27.479Z,29.80
2017-07-07T11:17:55.939Z,29.80
2017-07-07T11:20:24.643Z,30.00
2017-07-07T11:22:53.071Z,30.10
2017-07-07T11:25:21.556Z,30.00
2017-07-07T11:27:50.025Z,30.10
2017-07-07T11:30:18.455Z,30.10
2017-07-07T11:32:47.588Z,30.10
2017-07-07T11:35:16.020Z,30.10
2017-07-07T11:37:45.237Z,30.50
2017-07-07T11:40:13.656Z,30.40
2017-07-07T11:42:42.171Z,30.80
2017-07-07T11:45:10.582Z,30.90
2017-07-07T11:47:39.045Z,31.00
2017-07-07T11:50:07.763Z,31.00
2017-07-07T11:52:36.452Z,31.00
2017-07-07T11:55:04.900Z,30.60
2017-07-07T11:57:33.876Z,30.70
2017-07-07T12:00:02.304Z,30.70
2017-07-07T12:02:30.749Z,31.10
2017-07-07T12:04:59.164Z,31.60
2017-07-07T12:07:27.597Z,31.10
2017-07-07T12:09:56.851Z,30.50
2017-07-07T12:12:25.316Z,30.50
2017-07-07T12:14:54.611Z,30.20
2017-07-07T12:17:23.811Z,30.10
2017-07-07T12:19:53.326Z,30.10
2017-07-07T12:22:21.766Z,30.20
2017-07-07T12:24:50.187Z,30.40
2017-07-07T12:27:18.624Z,30.10
2017-07-07T12:29:47.051Z,30.30
2017-07-07T12:32:15.490Z,30.90
2017-07-07T12:34:43.911Z,31.20
2017-07-07T12:37:12.351Z,31.30
2017-07-07T12:39:40.788Z,31.50
2017-07-07T12:42:09.220Z,32.00
2017-07-07T12:44:37.703Z,31.80
2017-07-07T12:47:06.132Z,31.60
2017-07-07T12:49:34.578Z,32.00
2017-07-07T12:52:03.785Z,32.10
2017-07-07T12:54:33.011Z,32.20
2017-07-07T12:57:02.189Z,32.00
2017-07-07T12:59:31.495Z,32.20
2017-07-07T13:02:00.697Z,31.80
2017-07-07T13:04:30.008Z,32.20
2017-07-07T13:06:58.477Z,32.10
2017-07-07T13:09:27.660Z,32.60
2017-07-07T13:11:56.868Z,32.50
2017-07-07T13:14:26.083Z,31.90
2017-07-07T13:16:54.557Z,31.80
2017-07-07T13:19:23.811Z,31.60
2017-07-07T13:21:52.332Z,31.60
2017-07-07T13:24:21.525Z,31.70
2017-07-07T13:26:49.944Z,31.70
2017-07-07T13:29:18.396Z,32.20
2017-07-07T13:31:47.681Z,32.70
2017-07-07T13:34:15.840Z,32.60
2017-07-07T13:36:44.270Z,32.90
2017-07-07T13:39:12.751Z,33.00
2017-07-07T13:41:41.976Z,33.40
2017-07-07T13:44:11.471Z,33.10
2017-07-07T13:46:39.919Z,33.10
2017-07-07T13:49:09.124Z,32.90
2017-07-07T13:51:38.312Z,33.20
2017-07-07T13:54:07.615Z,33.60
2017-07-07T13:56:36.828Z,33.50
2017-07-07T13:59:05.304Z,33.40
2017-07-07T14:01:34.511Z,34.00
2017-07-07T14:04:02.954Z,33.90
2017-07-07T14:06:31.384Z,34.00
2017-07-07T14:08:59.843Z,33.70
2017-07-07T14:11:28.344Z,33.00
2017-07-07T14:13:56.808Z,32.90
2017-07-07T14:16:26.050Z,34.00
2017-07-07T14:18:54.459Z,34.00
2017-07-07T14:21:22.842Z,34.50
2017-07-07T14:23:51.086Z,34.60
2017-07-07T14:26:19.355Z,34.70
2017-07-07T14:28:47.771Z,34.00
2017-07-07T14:31:16.192Z,34.00
2017-07-07T14:33:44.309Z,33.40
2017-07-07T14:36:12.732Z,33.80
2017-07-07T14:38:42.121Z,34.00
2017-07-07T14:41:10.877Z,33.90
2017-07-07T14:43:39.635Z,33.90
2017-07-07T14:46:07.737Z,33.10
2017-07-07T14:48:36.316Z,33.00
2017-07-07T14:51:04.809Z,33.20
2017-07-07T14:53:34.235Z,33.70
2017-07-07T14:56:02.452Z,33.60
2017-07-07T14:58:31.174Z,33.70
2017-07-07T15:00:59.590Z,33.60
2017-07-07T15:03:28.312Z,33.50
2017-07-07T15:05:56.758Z,34.00
2017-07-07T15:08:25.168Z,33.90
2017-07-07T15:10:53.613Z,34.00
2017-07-07T15:13:22.102Z,33.10
2017-07-07T15:15:50.805Z,33.10
2017-07-07T15:18:19.244Z,33.50
2017-07-07T15:20:46.981Z,34.30
2017-07-07T15:23:15.686Z,34.30
2017-07-07T15:25:44.115Z,33.40
2017-07-07T15:28:12.585Z,33.40
2017-07-07T15:30:40.992Z,33.70
2017-07-07T15:33:09.416Z,34.50
2017-07-07T15:35:37.876Z,35.00
2017-07-07T15:38:06.308Z,35.10
2017-07-07T15:40:34.048Z,34.20
2017-07-07T15:43:02.576Z,33.30
2017-07-07T15:45:31.005Z,32.20
2017-07-07T15:47:59.435Z,31.50
2017-07-07T15:50:28.099Z,31.40
2017-07-07T15:52:56.592Z,31.10
2017-07-07T15:55:25.431Z,30.80
2017-07-07T15:57:53.868Z,30.90
2017-07-07T16:00:22.775Z,31.90
2017-07-07T16:02:51.235Z,33.20
2017-07-07T16:05:19.672Z,34.40
2017-07-07T16:07:48.125Z,34.90
2017-07-07T16:10:16.564Z,34.30
2017-07-07T16:12:45.017Z,34.90
2017-07-07T16:15:13.839Z,34.60
2017-07-07T16:17:42.252Z,33.90
2017-07-07T16:20:11.105Z,33.60
2017-07-07T16:22:39.792Z,33.90
2017-07-07T16:25:08.531Z,33.60
2017-07-07T16:27:37.796Z,34.30
2017-07-07T16:30:06.996Z,34.10
2017-07-07T16:32:35.437Z,34.20
2017-07-07T16:35:04.143Z,33.20
2017-07-07T16:37:33.023Z,32.40
2017-07-07T16:40:02.256Z,31.80
2017-07-07T16:42:30.712Z,31.10
2017-07-07T16:44:59.316Z,30.60
2017-07-07T16:47:27.747Z,30.30
2017-07-07T16:49:56.939Z,30.00
2017-07-07T16:52:25.099Z,29.90
2017-07-07T16:54:53.942Z,29.80
2017-07-07T16:57:22.767Z,29.80
2017-07-07T16:59:51.579Z,29.60
2017-07-07T17:02:20.698Z,29.60
2017-07-07T17:04:49.816Z,29.90
2017-07-07T17:07:19.035Z,30.70
2017-07-07T17:09:47.739Z,31.40
2017-07-07T17:12:16.948Z,31.30
2017-07-07T17:14:45.580Z,31.60
2017-07-07T17:17:13.995Z,31.20
2017-07-07T17:19:42.848Z,31.20
2017-07-07T17:22:12.035Z,31.20
2017-07-07T17:24:40.864Z,31.60
2017-07-07T17:27:10.085Z,31.50
2017-07-07T17:29:38.903Z,31.70
2017-07-07T17:32:07.748Z,32.00
2017-07-07T17:34:36.183Z,31.30
2017-07-07T17:37:05.038Z,31.20
2017-07-07T17:39:33.746Z,30.90
2017-07-07T17:42:02.874Z,30.20
2017-07-07T17:44:32.108Z,29.60
2017-07-07T17:47:00.933Z,29.20
2017-07-07T17:49:29.763Z,29.30
2017-07-07T17:51:58.223Z,29.10
2017-07-07T17:54:27.031Z,28.80
2017-07-07T17:56:55.868Z,28.60
2017-07-07T17:59:24.971Z,28.40
2017-07-07T18:01:53.845Z,28.40
2017-07-07T18:04:23.038Z,28.40
2017-07-07T18:06:51.876Z,28.30
2017-07-07T18:09:20.695Z,28.10
2017-07-07T18:11:49.937Z,27.90
2017-07-07T18:14:19.133Z,28.00
2017-07-07T18:16:48.323Z,27.90
2017-07-07T18:19:17.582Z,28.00
2017-07-07T18:21:46.412Z,27.60
2017-07-07T18:24:15.628Z,27.60
2017-07-07T18:26:44.452Z,27.40
2017-07-07T18:29:13.637Z,27.20
2017-07-07T18:31:42.083Z,26.60
2017-07-07T18:34:10.990Z,25.90
2017-07-07T18:36:39.839Z,25.30
2017-07-07T18:39:09.062Z,25.00
2017-07-07T18:41:38.324Z,24.60
2017-07-07T18:44:07.534Z,24.40
2017-07-07T18:46:37.013Z,24.30
2017-07-07T18:49:06.285Z,24.20
2017-07-07T18:51:35.469Z,24.10
2017-07-07T18:54:04.695Z,24.00
2017-07-07T18:56:33.548Z,24.00
2017-07-07T18:59:02.840Z,23.90
2017-07-07T19:01:32.032Z,23.80
2017-07-07T19:04:01.259Z,23.80
2017-07-07T19:06:30.198Z,23.50
2017-07-07T19:08:59.413Z,23.30
2017-07-07T19:11:28.606Z,23.30
2017-07-07T19:13:57.800Z,23.20
2017-07-07T19:16:27.259Z,23.20
2017-07-07T19:18:56.471Z,23.20
2017-07-07T19:21:25.683Z,23.20
2017-07-07T19:23:54.884Z,23.20
2017-07-07T19:26:24.085Z,23.20
2017-07-07T19:28:53.285Z,23.10
2017-07-07T19:31:21.741Z,23.10
2017-07-07T19:33:50.952Z,23.10
2017-07-07T19:36:19.806Z,23.10
2017-07-07T19:38:48.230Z,23.20
2017-07-07T19:41:17.068Z,23.20
2017-07-07T19:43:45.509Z,23.30
2017-07-07T19:46:14.352Z,23.30
2017-07-07T19:48:43.556Z,23.30
2017-07-07T19:51:12.006Z,23.20
2017-07-07T19:53:41.653Z,23.20
2017-07-07T19:56:10.844Z,23.30
2017-07-07T19:58:40.390Z,23.30
2017-07-07T20:01:09.593Z,23.20
2017-07-07T20:03:38.089Z,23.00
2017-07-07T20:06:07.050Z,22.60
2017-07-07T20:08:36.279Z,22.40
2017-07-07T20:11:05.133Z,22.20
2017-07-07T20:13:34.130Z,22.20
2017-07-07T20:16:02.578Z,22.10
2017-07-07T20:18:31.397Z,22.00
2017-07-07T20:21:00.403Z,22.00
2017-07-07T20:23:29.616Z,22.00
2017-07-07T20:25:58.448Z,22.00
2017-07-07T20:28:26.890Z,22.00
2017-07-07T20:30:55.709Z,21.70
2017-07-07T20:33:24.159Z,21.80
2017-07-07T20:35:52.996Z,21.70
2017-07-07T20:38:22.221Z,21.70
2017-07-07T20:40:51.015Z,21.60
2017-07-07T20:43:19.456Z,21.60
2017-07-07T20:45:48.283Z,21.50
2017-07-07T20:48:17.495Z,21.50
2017-07-07T20:50:46.768Z,21.50
2017-07-07T20:53:15.646Z,21.40
2017-07-07T20:55:44.897Z,21.40
2017-07-07T20:58:13.972Z,21.40
2017-07-07T21:00:43.216Z,21.30
2017-07-07T21:03:12.052Z,21.30
2017-07-07T21:05:41.173Z,21.30
2017-07-07T21:08:11.107Z,21.20
2017-07-07T21:10:39.800Z,21.20
2017-07-07T21:13:09.196Z,21.10
2017-07-07T21:15:38.312Z,21.10
2017-07-07T21:18:07.519Z,21.00
2017-07-07T21:20:35.965Z,21.20
2017-07-07T21:23:04.462Z,21.30
2017-07-07T21:25:33.658Z,21.20
2017-07-07T21:28:02.856Z,21.10
2017-07-07T21:30:31.756Z,21.10
2017-07-07T21:33:00.987Z,21.10
2017-07-07T21:35:30.200Z,21.10
2017-07-07T21:37:58.695Z,21.10
2017-07-07T21:40:27.155Z,21.10
2017-07-07T21:42:56.349Z,21.00
2017-07-07T21:45:24.772Z,20.90
2017-07-07T21:47:53.233Z,20.90
2017-07-07T21:50:21.681Z,21.00
2017-07-07T21:52:50.629Z,20.90
2017-07-07T21:55:18.355Z,21.00
2017-07-07T21:57:47.817Z,21.00
2017-07-07T22:00:17.044Z,20.90
2017-07-07T22:02:45.469Z,20.90
2017-07-07T22:05:14.309Z,20.90
2017-07-07T22:07:42.762Z,20.90
2017-07-07T22:10:11.466Z,21.00
2017-07-07T22:12:40.363Z,21.00
2017-07-07T22:15:08.445Z,21.00
2017-07-07T22:17:36.885Z,21.10
2017-07-07T22:20:05.311Z,21.10
2017-07-07T22:22:33.746Z,21.00
2017-07-07T22:25:02.183Z,21.00
2017-07-07T22:27:30.744Z,20.80
2017-07-07T22:29:59.930Z,20.80
2017-07-07T22:32:28.616Z,20.80
2017-07-07T22:34:57.828Z,20.70
2017-07-07T22:37:27.112Z,20.70
2017-07-07T22:39:55.654Z,20.80
2017-07-07T22:42:24.111Z,20.70
2017-07-07T22:44:52.540Z,20.70
2017-07-07T22:47:21.099Z,20.60
2017-07-07T22:49:49.531Z,20.60
2017-07-07T22:52:17.984Z,20.60
2017-07-07T22:54:46.417Z,20.60
2017-07-07T22:57:14.864Z,20.60
2017-07-07T22:59:43.311Z,20.60
2017-07-07T23:02:11.734Z,20.60
2017-07-07T23:04:40.440Z,20.60
2017-07-07T23:07:09.431Z,20.80
2017-07-07T23:09:38.717Z,20.80
2017-07-07T23:12:07.908Z,20.80
2017-07-07T23:14:36.344Z,20.80
2017-07-07T23:17:05.511Z,20.70
2017-07-07T23:19:33.935Z,20.70
2017-07-07T23:22:02.478Z,20.60
2017-07-07T23:24:30.932Z,20.60
2017-07-07T23:26:59.343Z,20.60
2017-07-07T23:29:27.846Z,20.50
2017-07-07T23:31:56.263Z,20.50
2017-07-07T23:34:24.702Z,20.50
2017-07-07T23:36:53.131Z,20.60
2017-07-07T23:39:21.575Z,20.60
2017-07-07T23:41:49.992Z,20.60
2017-07-07T23:44:19.335Z,20.50
2017-07-07T23:46:47.772Z,20.40
2017-07-07T23:49:16.196Z,20.50
2017-07-07T23:51:44.908Z,20.60
2017-07-07T23:54:13.421Z,20.60
2017-07-07T23:56:41.848Z,20.70
2017-07-07T23:59:10.287Z,20.60
